Time;durP1;ratioP1;P1;durP2;ratioP2;P2;SDS_P1;SDS_P2;PMS_P1;PMS_P2;Temp;Humidity;BMP_temperature;BMP_pressure;BME280_temperature;BME280_humidity;BME280_pressure;Samples;Min_cycle;Max_cycle;Signal;HPM_P1;HPM_P2
2023/05/25 00:01:23;;;;;;;18.45;6.43;;;;;;;11.12;81.62;101589.91;5049769;28;20049;-59
2023/05/25 00:03:51;;;;;;;14.75;5.82;;;;;;;11.11;81.17;101588.19;5050870;28;20118;-62
2023/05/25 00:06:18;;;;;;;11.75;5.30;;;;;;;11.07;81.25;101586.63;5048067;28;20123;-60
2023/05/25 00:08:46;;;;;;;9.68;5.57;;;;;;;11.06;81.28;101592.81;5050290;28;20069;-60
2023/05/25 00:11:15;;;;;;;18.23;6.13;;;;;;;11.03;81.48;101588.56;5062164;28;20049;-60
2023/05/25 00:13:43;;;;;;;18.48;6.05;;;;;;;11.03;81.92;101591.19;5050780;28;20160;-61
2023/05/25 00:16:10;;;;;;;15.30;5.28;;;;;;;11.04;82.24;101587.63;5048452;28;20049;-60
2023/05/25 00:18:37;;;;;;;10.57;5.05;;;;;;;11.06;81.84;101591.03;5048537;28;20048;-60
2023/05/25 00:21:05;;;;;;;11.82;5.22;;;;;;;11.10;82.14;101592.63;5049546;28;20048;-59
2023/05/25 00:23:32;;;;;;;11.80;5.45;;;;;;;11.12;81.96;101593.41;5047842;28;20140;-60
2023/05/25 00:26:01;;;;;;;15.13;4.90;;;;;;;11.13;81.89;101589.84;5049229;28;20075;-59
2023/05/25 00:28:29;;;;;;;11.18;5.40;;;;;;;11.17;81.72;101595.84;5053848;28;20041;-61
2023/05/25 00:30:56;;;;;;;10.02;5.63;;;;;;;11.20;81.80;101597.47;5055546;28;20163;-63
2023/05/25 00:33:23;;;;;;;13.40;5.78;;;;;;;11.21;81.85;101593.91;5050132;28;20057;-60
2023/05/25 00:35:52;;;;;;;11.32;5.00;;;;;;;11.26;81.70;101597.19;5047463;28;20064;-61
2023/05/25 00:38:20;;;;;;;12.70;4.95;;;;;;;11.27;81.78;101594.47;5049462;28;20053;-61
2023/05/25 00:40:47;;;;;;;11.93;5.03;;;;;;;11.30;81.27;101593.47;5051834;28;20394;-61
2023/05/25 00:43:15;;;;;;;13.85;5.38;;;;;;;11.33;81.55;101598.59;5047786;28;20091;-61
2023/05/25 00:45:42;;;;;;;11.60;5.45;;;;;;;11.35;81.07;101589.72;5050722;28;20143;-60
2023/05/25 00:48:10;;;;;;;14.65;5.32;;;;;;;11.34;80.82;101590.63;5050883;28;20051;-60
2023/05/25 00:50:41;;;;;;;14.77;5.95;;;;;;;11.38;80.36;101597.47;5046690;28;20072;-61
2023/05/25 00:53:10;;;;;;;11.73;4.88;;;;;;;11.39;80.43;101600.94;5049495;28;20143;-61
2023/05/25 00:55:43;;;;;;;11.52;6.22;;;;;;;11.43;79.85;101593.75;5046230;28;20057;-61
2023/05/25 00:58:13;;;;;;;11.63;5.15;;;;;;;11.40;79.75;101584.22;5049963;28;20500;-62
2023/05/25 01:00:41;;;;;;;12.43;4.85;;;;;;;11.39;79.88;101593.91;5045655;28;20053;-62
2023/05/25 01:03:11;;;;;;;15.20;5.47;;;;;;;11.39;79.39;101593.03;5040622;28;20614;-61
2023/05/25 01:05:43;;;;;;;15.30;5.82;;;;;;;11.36;79.29;101572.97;5046590;28;20060;-63
2023/05/25 01:08:13;;;;;;;14.10;5.03;;;;;;;11.34;79.55;101584.50;5045900;28;20044;-60
2023/05/25 01:10:41;;;;;;;10.38;5.07;;;;;;;11.29;79.78;101582.06;5048757;28;20215;-62
2023/05/25 01:13:09;;;;;;;11.50;5.18;;;;;;;11.27;79.81;101583.09;5047933;28;20354;-61
2023/05/25 01:15:37;;;;;;;13.70;5.80;;;;;;;11.22;80.10;101585.94;5047332;28;20084;-63
2023/05/25 01:18:04;;;;;;;9.60;5.03;;;;;;;11.20;80.01;101585.13;5049502;28;20058;-61
2023/05/25 01:20:32;;;;;;;18.35;6.28;;;;;;;11.18;80.33;101586.16;5035638;28;20048;-60
2023/05/25 01:23:10;;;;;;;11.57;5.40;;;;;;;11.15;80.39;101585.34;5023301;28;20164;-61
2023/05/25 01:25:59;;;;;;;12.25;5.53;;;;;;;11.08;80.89;101583.94;5045809;28;20049;-59
2023/05/25 01:28:39;;;;;;;12.77;5.32;;;;;;;11.05;80.72;101588.50;5052157;28;20049;-60
2023/05/25 01:31:07;;;;;;;15.63;5.90;;;;;;;11.02;81.21;101591.25;5045077;28;20139;-59
2023/05/25 01:33:35;;;;;;;12.05;5.38;;;;;;;10.99;81.43;101596.69;5046516;28;20049;-64
2023/05/25 01:36:03;;;;;;;10.02;4.80;;;;;;;10.95;81.57;101589.84;5052543;28;20459;-60
2023/05/25 01:38:30;;;;;;;14.15;5.13;;;;;;;10.90;82.28;101593.53;5045050;28;20451;-59
2023/05/25 01:40:59;;;;;;;11.00;5.40;;;;;;;10.88;82.62;101594.50;5041786;28;20041;-61
2023/05/25 01:43:26;;;;;;;11.50;5.18;;;;;;;10.85;82.38;101592.00;5045694;28;20121;-61
2023/05/25 01:46:35;;;;;;;10.88;5.57;;;;;;;10.82;82.78;101597.44;5044433;28;20053;-60
2023/05/25 01:49:08;;;;;;;9.65;5.10;;;;;;;10.79;82.89;101590.50;5049142;28;20108;-60
2023/05/25 01:52:00;;;;;;;11.85;5.32;;;;;;;10.78;83.29;101596.69;5062886;28;20048;-61
2023/05/25 01:54:51;;;;;;;12.95;5.65;;;;;;;10.78;83.39;101587.94;5043634;28;20057;-60
2023/05/25 01:57:19;;;;;;;11.85;5.43;;;;;;;10.76;83.47;101592.41;5036616;28;20154;-60
2023/05/25 01:59:48;;;;;;;9.13;5.03;;;;;;;10.74;83.56;101591.63;5043681;28;20061;-60
2023/05/25 02:02:18;;;;;;;12.60;5.30;;;;;;;10.70;83.74;101590.91;5049569;28;20060;-61
2023/05/25 02:04:46;;;;;;;11.25;5.10;;;;;;;10.69;84.21;101588.34;5050758;28;20052;-62
2023/05/25 02:07:13;;;;;;;10.23;6.03;;;;;;;10.66;84.41;101578.78;5047705;28;20080;-62
2023/05/25 02:09:41;;;;;;;13.88;5.43;;;;;;;10.63;84.51;101592.13;5054339;28;20155;-61
2023/05/25 02:12:08;;;;;;;10.73;4.57;;;;;;;10.61;84.66;101586.03;5033002;28;20592;-62
2023/05/25 02:14:35;;;;;;;19.98;6.45;;;;;;;10.58;84.73;101584.41;5049141;28;20455;-60
2023/05/25 02:17:03;;;;;;;11.25;5.53;;;;;;;10.54;85.19;101577.56;5047382;28;20110;-60
2023/05/25 02:19:30;;;;;;;16.45;6.57;;;;;;;10.52;85.31;101582.03;5053083;28;20073;-61
2023/05/25 02:21:57;;;;;;;15.70;5.45;;;;;;;10.53;85.97;101585.53;5052105;28;20059;-61
2023/05/25 02:24:25;;;;;;;11.10;5.50;;;;;;;10.50;85.99;101588.31;5044565;28;20060;-59
2023/05/25 02:26:52;;;;;;;15.13;6.93;;;;;;;10.48;86.64;101596.25;5051484;28;20044;-59
2023/05/25 02:29:19;;;;;;;13.13;5.68;;;;;;;10.44;86.78;101594.66;5048979;28;20174;-59
2023/05/25 02:31:47;;;;;;;12.52;5.78;;;;;;;10.43;86.51;101594.75;5044493;28;20088;-60
2023/05/25 02:34:14;;;;;;;10.18;5.70;;;;;;;10.41;86.96;101602.72;5048890;28;20756;-60
2023/05/25 02:36:43;;;;;;;16.80;6.20;;;;;;;10.38;87.36;101593.16;5047980;28;20187;-59
2023/05/25 02:39:11;;;;;;;14.10;5.90;;;;;;;10.37;87.49;101601.13;5050923;28;20167;-59
2023/05/25 02:41:38;;;;;;;12.00;5.82;;;;;;;10.36;88.06;101602.06;5048647;28;20143;-60
2023/05/25 02:44:05;;;;;;;14.73;5.90;;;;;;;10.32;87.81;101598.69;5049168;28;20055;-61
2023/05/25 02:46:32;;;;;;;11.18;7.10;;;;;;;10.33;88.21;101602.19;5047510;28;20053;-60
2023/05/25 02:49:00;;;;;;;20.40;7.65;;;;;;;10.32;89.17;101597.84;5048919;28;20049;-60
2023/05/25 02:51:28;;;;;;;14.18;7.18;;;;;;;10.29;88.93;101595.34;5046372;28;20052;-60
2023/05/25 02:53:55;;;;;;;11.20;5.97;;;;;;;10.26;89.13;101588.41;5059806;28;20522;-61
2023/05/25 02:56:22;;;;;;;14.10;6.00;;;;;;;10.25;89.25;101593.75;5046548;28;20059;-60
2023/05/25 02:58:50;;;;;;;13.05;6.53;;;;;;;10.24;89.42;101600.78;5048090;28;20138;-61
2023/05/25 03:01:17;;;;;;;15.35;6.25;;;;;;;10.22;89.45;101597.34;5046411;28;20127;-60
2023/05/25 03:03:46;;;;;;;9.68;4.88;;;;;;;10.20;89.90;101600.94;5051070;28;20132;-59
2023/05/25 03:06:13;;;;;;;16.35;6.95;;;;;;;10.17;89.59;101594.03;5049073;28;20088;-61
2023/05/25 03:08:40;;;;;;;13.52;6.43;;;;;;;10.17;90.02;101595.81;5044134;28;20098;-59
2023/05/25 03:11:07;;;;;;;11.43;6.22;;;;;;;10.17;90.33;101593.19;5048685;28;20139;-60
2023/05/25 03:13:35;;;;;;;13.93;6.70;;;;;;;10.17;90.50;101599.28;5050937;28;20140;-59
2023/05/25 03:16:02;;;;;;;15.80;6.20;;;;;;;10.16;90.46;101594.94;5047576;28;20128;-61
2023/05/25 03:18:29;;;;;;;15.30;6.13;;;;;;;10.16;90.30;101605.47;5048584;28;20155;-62
2023/05/25 03:20:56;;;;;;;13.57;6.32;;;;;;;10.13;90.48;101601.22;5048641;28;20527;-58
2023/05/25 03:23:24;;;;;;;17.63;6.38;;;;;;;10.14;90.23;101596.81;5045996;28;20417;-61
2023/05/25 03:25:51;;;;;;;16.38;7.18;;;;;;;10.15;90.85;101609.03;5053033;28;20524;-60
2023/05/25 03:28:19;;;;;;;10.77;6.22;;;;;;;10.15;90.54;101607.25;5049891;28;20042;-59
2023/05/25 03:30:46;;;;;;;18.08;7.63;;;;;;;10.18;90.68;101601.03;5048792;28;20139;-59
2023/05/25 03:33:14;;;;;;;13.98;6.22;;;;;;;10.18;90.91;101613.28;5049673;28;20123;-56
2023/05/25 03:35:41;;;;;;;15.10;6.60;;;;;;;10.18;90.81;101613.28;5053510;28;20061;-58
2023/05/25 03:38:09;;;;;;;13.55;6.82;;;;;;;10.19;90.69;101612.41;5051150;28;20163;-59
2023/05/25 03:40:36;;;;;;;11.13;6.38;;;;;;;10.19;90.83;101608.00;5046644;28;20287;-60
2023/05/25 03:43:03;;;;;;;17.73;7.55;;;;;;;10.19;90.57;101609.78;5047280;28;20481;-60
2023/05/25 03:45:31;;;;;;;14.45;8.10;;;;;;;10.19;90.59;101610.63;5050105;28;20527;-59
2023/05/25 03:47:58;;;;;;;15.85;7.28;;;;;;;10.22;90.72;101617.50;5050420;28;20053;-58
2023/05/25 03:50:25;;;;;;;14.63;7.18;;;;;;;10.23;90.78;101619.25;5052099;28;20139;-58
2023/05/25 03:52:52;;;;;;;14.73;7.03;;;;;;;10.25;91.22;101615.66;5048100;28;20055;-60
2023/05/25 03:55:20;;;;;;;14.23;7.10;;;;;;;10.27;91.20;101623.50;5047707;28;20143;-60
2023/05/25 03:57:47;;;;;;;18.83;7.68;;;;;;;10.30;91.81;101628.63;5050090;28;20059;-59
2023/05/25 04:00:15;;;;;;;14.77;7.63;;;;;;;10.29;92.18;101622.50;5053203;28;20067;-61
2023/05/25 04:02:43;;;;;;;20.65;7.55;;;;;;;10.33;92.11;101628.50;5051099;28;20095;-59
2023/05/25 04:05:10;;;;;;;23.60;7.88;;;;;;;10.37;92.13;101632.72;5051182;28;20136;-59
2023/05/25 04:07:37;;;;;;;19.17;7.43;;;;;;;10.43;92.21;101631.59;5048310;28;20156;-58
2023/05/25 04:10:06;;;;;;;18.65;7.65;;;;;;;10.49;91.71;101629.56;5048225;28;20048;-60
2023/05/25 04:12:33;;;;;;;14.63;8.10;;;;;;;10.56;91.64;101632.78;5052281;28;20110;-60
2023/05/25 04:15:02;;;;;;;18.13;6.78;;;;;;;10.63;91.68;101640.38;5050066;28;20417;-59
2023/05/25 04:17:30;;;;;;;18.55;6.90;;;;;;;10.75;91.11;101628.44;5049660;28;20140;-60
2023/05/25 04:19:57;;;;;;;15.85;8.13;;;;;;;10.82;90.97;101636.94;5052061;28;20060;-60
2023/05/25 04:22:24;;;;;;;14.43;7.47;;;;;;;10.89;90.95;101631.31;5050225;28;20053;-59
2023/05/25 04:24:52;;;;;;;22.70;8.30;;;;;;;10.97;90.73;101635.41;5049709;28;20049;-59
2023/05/25 04:27:21;;;;;;;18.00;7.97;;;;;;;11.02;90.75;101639.53;5057510;28;20048;-59
2023/05/25 04:29:49;;;;;;;15.00;8.15;;;;;;;11.07;90.31;101639.31;5044501;28;20041;-58
2023/05/25 04:32:17;;;;;;;22.83;7.22;;;;;;;11.09;90.44;101637.50;5040018;28;20049;-59
2023/05/25 04:34:45;;;;;;;25.35;10.05;;;;;;;11.13;90.48;101639.91;5044292;28;20134;-60
2023/05/25 04:37:13;;;;;;;17.35;8.10;;;;;;;11.18;90.48;101646.78;5048093;28;20107;-59
2023/05/25 04:39:40;;;;;;;16.40;7.57;;;;;;;11.24;90.45;101649.13;5038267;28;20659;-60
2023/05/25 04:42:07;;;;;;;22.98;10.02;;;;;;;11.29;90.21;101657.66;5042029;28;20059;-59
2023/05/25 04:44:35;;;;;;;23.33;9.93;;;;;;;11.31;90.23;101647.94;5041818;28;20063;-60
2023/05/25 04:47:02;;;;;;;23.30;8.88;;;;;;;11.36;90.15;101649.41;5048085;28;20136;-60
2023/05/25 04:49:30;;;;;;;23.63;8.75;;;;;;;11.42;90.11;101656.19;5044077;28;20063;-59
2023/05/25 04:51:57;;;;;;;20.67;9.73;;;;;;;11.46;90.23;101644.56;5044124;28;20133;-61
2023/05/25 04:54:24;;;;;;;22.83;9.13;;;;;;;11.52;90.14;101656.59;5035584;28;20059;-58
2023/05/25 04:56:52;;;;;;;21.73;9.30;;;;;;;11.57;89.91;101651.97;5040917;28;20139;-59
2023/05/25 04:59:19;;;;;;;26.45;10.55;;;;;;;11.63;89.60;101649.06;5040339;28;20397;-59
2023/05/25 05:01:47;;;;;;;18.30;8.85;;;;;;;11.70;89.36;101639.06;5039349;28;20159;-60
2023/05/25 05:04:15;;;;;;;18.60;9.38;;;;;;;11.77;89.35;101651.06;5045838;28;20044;-58
2023/05/25 05:06:43;;;;;;;20.77;8.82;;;;;;;11.79;89.44;101643.91;5048623;28;20501;-59
2023/05/25 05:09:10;;;;;;;18.88;8.32;;;;;;;11.85;88.85;101643.66;5044234;28;20433;-61
2023/05/25 05:11:38;;;;;;;25.20;10.23;;;;;;;11.91;88.59;101644.22;5044026;28;20071;-61
2023/05/25 05:14:05;;;;;;;24.33;9.00;;;;;;;12.00;88.63;101640.28;5047607;28;20163;-60
2023/05/25 05:16:33;;;;;;;17.45;9.48;;;;;;;12.07;87.96;101641.69;5042388;28;20049;-60
2023/05/25 05:19:01;;;;;;;20.58;10.13;;;;;;;12.13;88.02;101645.81;5043228;28;20045;-59
2023/05/25 05:21:28;;;;;;;23.55;9.88;;;;;;;12.20;87.68;101646.34;5036149;28;20128;-59
2023/05/25 05:23:56;;;;;;;22.25;9.52;;;;;;;12.29;87.40;101659.09;5050872;28;20069;-59
2023/05/25 05:26:23;;;;;;;19.38;8.20;;;;;;;12.33;87.22;101652.72;5044980;28;20072;-58
2023/05/25 05:28:51;;;;;;;24.33;9.02;;;;;;;12.41;87.16;101653.22;5045901;28;20139;-59
2023/05/25 05:31:18;;;;;;;18.27;7.80;;;;;;;12.46;86.84;101656.47;5044774;28;20071;-58
2023/05/25 05:33:46;;;;;;;24.30;8.98;;;;;;;12.55;86.55;101665.72;5028525;28;20057;-59
2023/05/25 05:36:13;;;;;;;25.83;9.23;;;;;;;12.63;86.10;101674.13;5040623;28;20148;-61
2023/05/25 05:38:41;;;;;;;25.45;9.55;;;;;;;12.73;85.44;101671.84;5052334;28;20669;-60
2023/05/25 05:41:12;;;;;;;20.80;9.30;;;;;;;12.84;84.67;101672.19;5040721;28;20089;-62
2023/05/25 05:43:41;;;;;;;15.85;8.40;;;;;;;12.97;84.21;101672.38;5045412;28;20049;-60
2023/05/25 05:46:12;;;;;;;23.90;10.30;;;;;;;13.06;83.58;101670.13;5042259;28;20048;-61
2023/05/25 05:48:40;;;;;;;30.80;9.93;;;;;;;13.16;82.90;101673.97;5046993;28;20120;-60
2023/05/25 05:51:10;;;;;;;20.42;8.90;;;;;;;13.27;82.49;101676.06;5048880;28;20624;-59
2023/05/25 05:53:37;;;;;;;22.52;9.35;;;;;;;13.35;81.94;101678.31;5042684;28;20565;-60
2023/05/25 05:56:05;;;;;;;21.15;9.75;;;;;;;13.40;81.83;101676.28;5060943;28;20629;-62
2023/05/25 05:58:33;;;;;;;25.10;9.23;;;;;;;13.55;81.74;101677.22;5048923;28;20122;-60
2023/05/25 06:01:01;;;;;;;24.05;10.20;;;;;;;13.62;80.91;101679.47;5051088;28;20540;-59
2023/05/25 06:03:28;;;;;;;22.30;9.48;;;;;;;13.71;80.62;101683.41;5053375;28;20044;-58
2023/05/25 06:05:55;;;;;;;23.63;8.32;;;;;;;13.82;79.50;101688.09;5049466;28;20053;-61
2023/05/25 06:08:22;;;;;;;23.13;9.77;;;;;;;13.84;79.06;101686.22;5062524;28;20076;-61
2023/05/25 06:10:50;;;;;;;26.33;10.05;;;;;;;13.90;78.84;101686.72;5049062;28;20128;-57
2023/05/25 06:13:17;;;;;;;27.17;8.93;;;;;;;14.01;78.24;101694.09;5053992;28;20136;-61
2023/05/25 06:15:44;;;;;;;22.27;9.10;;;;;;;14.12;77.17;101690.81;5045598;28;20049;-60
2023/05/25 06:18:12;;;;;;;20.10;8.90;;;;;;;14.29;76.84;101692.50;5048367;28;20052;-59
2023/05/25 06:20:40;;;;;;;24.10;9.27;;;;;;;14.44;75.92;101696.91;5053528;28;20074;-58
2023/05/25 06:23:10;;;;;;;24.35;9.55;;;;;;;14.55;75.04;101697.19;5050132;28;20068;-58
2023/05/25 06:25:37;;;;;;;23.77;9.20;;;;;;;14.73;74.77;101697.91;5052946;28;20428;-60
2023/05/25 06:28:04;;;;;;;23.33;7.85;;;;;;;14.79;73.80;101696.69;5041303;28;20416;-59
2023/05/25 06:30:31;;;;;;;20.05;8.38;;;;;;;14.93;73.72;101699.34;5044968;28;20461;-59
2023/05/25 06:32:59;;;;;;;28.58;8.63;;;;;;;15.04;72.30;101696.91;5042327;28;20541;-60
2023/05/25 06:35:26;;;;;;;21.30;7.85;;;;;;;15.06;70.76;101697.66;5045526;28;20725;-60
2023/05/25 06:37:55;;;;;;;20.27;7.18;;;;;;;15.13;70.26;101703.44;5054726;28;20061;-59
2023/05/25 06:40:22;;;;;;;23.90;6.75;;;;;;;15.18;70.53;101702.22;5057058;28;21029;-60
2023/05/25 06:42:49;;;;;;;26.20;7.22;;;;;;;15.22;69.93;101700.25;5050303;28;20198;-60
2023/05/25 06:45:17;;;;;;;22.88;7.30;;;;;;;15.26;70.03;101707.03;5047664;28;20041;-61
2023/05/25 06:47:44;;;;;;;21.17;7.55;;;;;;;15.36;69.60;101707.34;5049018;28;20541;-59
2023/05/25 06:50:12;;;;;;;20.02;7.55;;;;;;;15.52;69.29;101707.25;5056142;28;20116;-58
2023/05/25 06:52:39;;;;;;;14.30;6.63;;;;;;;15.57;68.03;101713.97;5060342;28;20091;-59
2023/05/25 06:55:07;;;;;;;20.83;7.57;;;;;;;15.50;66.97;101698.53;5062765;28;20053;-59
2023/05/25 06:57:35;;;;;;;22.73;7.60;;;;;;;15.52;67.60;101701.94;5052069;28;20041;-60
2023/05/25 07:00:03;;;;;;;21.98;6.13;;;;;;;15.63;66.04;101705.63;5050648;28;20063;-62
2023/05/25 07:02:30;;;;;;;24.77;6.82;;;;;;;15.75;66.02;101704.03;5043873;28;20045;-61
2023/05/25 07:04:58;;;;;;;21.25;7.05;;;;;;;15.87;65.40;101710.38;5053057;28;20365;-59
2023/05/25 07:07:25;;;;;;;19.65;6.40;;;;;;;15.92;64.17;101711.78;5048436;28;20124;-60
2023/05/25 07:09:52;;;;;;;18.70;6.22;;;;;;;15.96;63.25;101712.44;5052888;28;20115;-60
2023/05/25 07:12:20;;;;;;;22.55;7.45;;;;;;;16.08;62.71;101706.34;5050078;28;20144;-62
2023/05/25 07:14:47;;;;;;;20.73;5.75;;;;;;;16.27;62.90;101710.44;5055328;28;20071;-60
2023/05/25 07:17:15;;;;;;;14.00;4.72;;;;;;;16.37;60.58;101711.53;5049904;28;20053;-60
2023/05/25 07:19:42;;;;;;;18.60;5.90;;;;;;;16.54;60.44;101713.09;5052877;28;20053;-58
2023/05/25 07:22:09;;;;;;;15.40;5.95;;;;;;;16.61;59.09;101707.22;5054646;28;20136;-60
2023/05/25 07:24:37;;;;;;;18.20;6.22;;;;;;;16.71;59.06;101707.50;5048353;28;20060;-62
2023/05/25 07:27:05;;;;;;;25.33;6.18;;;;;;;16.84;58.86;101713.72;5042245;28;20131;-61
2023/05/25 07:29:32;;;;;;;20.52;6.10;;;;;;;16.90;58.52;101717.75;5051565;28;20072;-61
2023/05/25 07:32:00;;;;;;;19.05;5.47;;;;;;;16.99;57.82;101709.16;5039946;28;20084;-59
2023/05/25 07:34:27;;;;;;;17.00;4.60;;;;;;;17.08;54.83;101707.66;5055861;28;20048;-60
2023/05/25 07:36:54;;;;;;;12.55;4.05;;;;;;;17.09;53.58;101710.22;5057493;28;20081;-61
2023/05/25 07:39:21;;;;;;;21.98;4.00;;;;;;;17.15;53.30;101714.25;5055918;28;20464;-62
2023/05/25 07:41:48;;;;;;;12.52;3.92;;;;;;;17.19;52.43;101716.59;5050135;28;20084;-60
2023/05/25 07:44:16;;;;;;;12.88;3.40;;;;;;;17.14;51.19;101724.06;5054831;28;20051;-60
2023/05/25 07:46:43;;;;;;;11.77;3.67;;;;;;;17.11;51.26;101734.94;5057682;28;20163;-59
2023/05/25 07:49:14;;;;;;;13.27;3.83;;;;;;;17.06;52.15;101733.50;5054014;28;20678;-60
2023/05/25 07:51:43;;;;;;;12.32;3.92;;;;;;;17.07;52.62;101732.56;5048649;28;20136;-60
2023/05/25 07:54:11;;;;;;;15.32;3.72;;;;;;;17.09;53.12;101728.00;5063707;28;20094;-60
2023/05/25 07:56:38;;;;;;;14.13;3.92;;;;;;;17.04;53.06;101738.94;5050296;28;20065;-59
2023/05/25 07:59:05;;;;;;;13.40;4.20;;;;;;;16.65;52.35;101732.66;5048475;28;20140;-60
2023/05/25 08:01:32;;;;;;;12.77;4.18;;;;;;;16.54;52.83;101732.53;5048647;28;20175;-61
2023/05/25 08:04:00;;;;;;;13.13;3.78;;;;;;;16.81;52.87;101727.22;5054110;28;20080;-62
2023/05/25 08:06:27;;;;;;;13.15;3.50;;;;;;;17.21;52.66;101729.81;5052562;28;20081;-60
2023/05/25 08:08:54;;;;;;;13.70;4.05;;;;;;;17.55;52.09;101732.75;5055286;28;20109;-60
2023/05/25 08:11:25;;;;;;;14.38;3.83;;;;;;;17.76;50.80;101725.09;5048192;28;20064;-60
2023/05/25 08:13:52;;;;;;;11.68;4.18;;;;;;;17.76;50.83;101736.59;5053398;28;20061;-60
2023/05/25 08:16:19;;;;;;;8.13;3.13;;;;;;;17.69;50.83;101741.47;5050964;28;20053;-60
2023/05/25 08:18:47;;;;;;;9.85;3.42;;;;;;;17.63;49.70;101747.25;5052284;28;20061;-60
2023/05/25 08:21:14;;;;;;;14.68;3.25;;;;;;;17.62;50.11;101729.56;5053179;28;20672;-60
2023/05/25 08:23:41;;;;;;;13.23;3.67;;;;;;;17.99;49.74;101731.44;5051318;28;20187;-60
2023/05/25 08:26:10;;;;;;;12.70;4.80;;;;;;;18.18;48.39;101734.44;5047053;28;20132;-58
2023/05/25 08:28:57;;;;;;;9.15;3.20;;;;;;;18.02;47.49;101737.41;5051766;28;20140;-59
2023/05/25 08:31:24;;;;;;;11.73;3.40;;;;;;;18.04;48.17;101738.13;5053270;28;20516;-60
2023/05/25 08:33:51;;;;;;;11.90;3.35;;;;;;;17.96;48.62;101729.81;5046886;28;20049;-60
2023/05/25 08:36:19;;;;;;;9.55;3.20;;;;;;;18.08;48.86;101736.94;5052015;28;20079;-59
2023/05/25 08:38:46;;;;;;;14.82;3.65;;;;;;;18.38;48.37;101733.84;5059946;28;20056;-56
2023/05/25 08:41:13;;;;;;;11.05;4.43;;;;;;;18.34;47.96;101747.50;5051568;28;20054;-60
2023/05/25 08:43:41;;;;;;;10.30;3.15;;;;;;;18.30;46.89;101740.69;5045111;28;20393;-59
2023/05/25 08:46:08;;;;;;;12.93;4.03;;;;;;;18.32;47.63;101739.59;5055453;28;20142;-60
2023/05/25 08:48:37;;;;;;;8.55;3.58;;;;;;;18.43;47.50;101726.34;5051544;28;20072;-59
2023/05/25 08:51:09;;;;;;;11.93;4.55;;;;;;;18.59;47.15;101742.03;5047692;28;20621;-60
2023/05/25 08:53:39;;;;;;;10.77;3.50;;;;;;;18.83;47.09;101739.38;5045279;28;20151;-59
2023/05/25 08:56:17;;;;;;;11.52;3.53;;;;;;;19.03;46.35;101737.00;5055466;28;20048;-60
2023/05/25 08:58:53;;;;;;;10.43;3.70;;;;;;;18.90;46.35;101740.59;5047573;28;20080;-60
2023/05/25 09:01:21;;;;;;;12.82;3.70;;;;;;;19.06;46.27;101736.78;5045796;28;20390;-60
2023/05/25 09:03:48;;;;;;;11.68;3.95;;;;;;;19.01;46.60;101744.28;5044941;28;20051;-59
2023/05/25 09:06:16;;;;;;;10.85;4.15;;;;;;;18.79;47.27;101747.75;5048987;28;20159;-60
2023/05/25 09:08:44;;;;;;;15.88;4.97;;;;;;;18.01;50.04;101741.00;5052711;28;20054;-60
2023/05/25 09:11:11;;;;;;;20.40;4.32;;;;;;;17.86;50.88;101737.63;5039075;28;20041;-60
2023/05/25 09:13:43;;;;;;;15.05;4.10;;;;;;;17.91;51.32;101739.97;5052357;28;20483;-59
2023/05/25 09:16:10;;;;;;;15.27;5.57;;;;;;;18.09;51.45;101741.28;5050641;28;20144;-60
2023/05/25 09:18:39;;;;;;;15.27;4.78;;;;;;;18.31;50.12;101748.56;5054127;28;20071;-60
2023/05/25 09:21:06;;;;;;;13.10;4.07;;;;;;;18.66;49.72;101740.63;5054145;28;20048;-59
2023/05/25 09:23:34;;;;;;;10.45;3.72;;;;;;;19.01;46.66;101745.13;5049555;28;20378;-61
2023/05/25 09:26:01;;;;;;;11.90;3.67;;;;;;;19.25;45.77;101750.38;5049880;28;20469;-59
2023/05/25 09:28:28;;;;;;;14.65;3.55;;;;;;;19.13;45.63;101749.50;5045400;28;20087;-60
2023/05/25 09:30:55;;;;;;;9.55;3.47;;;;;;;19.25;45.13;101742.38;5055957;28;20136;-61
2023/05/25 09:33:23;;;;;;;10.55;4.22;;;;;;;19.32;45.29;101740.94;5045721;28;20084;-60
2023/05/25 09:35:50;;;;;;;11.93;3.58;;;;;;;19.36;45.31;101745.09;5056852;28;20076;-60
2023/05/25 09:38:17;;;;;;;11.88;3.63;;;;;;;19.31;45.68;101754.41;5054862;28;20400;-60
2023/05/25 09:40:45;;;;;;;13.85;4.80;;;;;;;18.84;46.55;101750.91;5064680;28;20055;-59
2023/05/25 09:43:13;;;;;;;12.35;3.88;;;;;;;18.78;47.11;101743.34;5043735;28;20068;-61
2023/05/25 09:45:58;;;;;;;11.10;3.70;;;;;;;18.64;46.42;101745.22;5058577;28;20070;-60
2023/05/25 09:48:28;;;;;;;9.55;3.80;;;;;;;18.97;46.60;101755.19;5054929;28;21065;-62
2023/05/25 09:50:55;;;;;;;10.20;4.18;;;;;;;19.38;46.07;101751.13;5029065;28;20056;-61
2023/05/25 09:53:22;;;;;;;13.00;4.35;;;;;;;19.56;45.81;101764.88;5062621;28;20088;-60
2023/05/25 09:55:50;;;;;;;13.32;5.57;;;;;;;19.39;45.67;101750.16;5047672;28;20119;-61
2023/05/25 09:58:26;;;;;;;12.93;4.28;;;;;;;19.25;46.55;101752.22;5049950;28;20048;-61
2023/05/25 10:00:54;;;;;;;10.65;4.57;;;;;;;18.96;46.88;101766.00;5053298;28;20080;-59
2023/05/25 10:03:21;;;;;;;17.85;5.30;;;;;;;18.81;48.24;101759.97;5056148;28;20048;-59
2023/05/25 10:05:49;;;;;;;11.48;4.70;;;;;;;18.76;47.42;101756.81;5053150;28;20067;-60
2023/05/25 10:08:19;;;;;;;13.00;4.70;;;;;;;18.64;48.95;101758.56;5053735;28;20072;-60
2023/05/25 10:10:48;;;;;;;13.73;4.35;;;;;;;18.75;48.30;101762.28;5050067;28;20147;-57
2023/05/25 10:13:20;;;;;;;12.80;4.32;;;;;;;18.54;48.15;101765.53;5049902;28;20071;-60
2023/05/25 10:15:51;;;;;;;18.02;4.78;;;;;;;18.68;48.36;101756.50;5046064;28;20071;-59
2023/05/25 10:18:24;;;;;;;16.98;5.00;;;;;;;19.05;47.00;101762.63;5045897;28;20103;-61
2023/05/25 10:21:00;;;;;;;11.18;4.03;;;;;;;19.50;46.75;101754.69;5044310;28;20094;-58
2023/05/25 10:23:40;;;;;;;10.55;3.88;;;;;;;19.80;45.39;101761.25;5047290;28;20132;-57
2023/05/25 10:26:08;;;;;;;14.57;4.20;;;;;;;19.87;44.96;101759.78;5047380;28;20048;-59
2023/05/25 10:28:38;;;;;;;12.05;3.70;;;;;;;20.00;45.36;101757.84;5048605;28;20147;-60
2023/05/25 10:31:06;;;;;;;12.13;4.03;;;;;;;20.31;44.89;101764.22;5044625;28;20091;-60
2023/05/25 10:33:33;;;;;;;9.23;3.17;;;;;;;20.45;44.53;101768.44;5043343;28;20060;-60
2023/05/25 10:36:02;;;;;;;8.20;3.25;;;;;;;20.68;44.04;101764.72;5052533;28;20063;-58
2023/05/25 10:38:39;;;;;;;10.07;4.03;;;;;;;20.46;43.96;101764.75;5046264;28;20092;-60
2023/05/25 10:41:08;;;;;;;9.40;3.70;;;;;;;20.43;44.31;101765.84;5057284;28;20763;-57
2023/05/25 10:43:39;;;;;;;12.50;3.80;;;;;;;20.34;44.90;101755.06;5042751;28;20525;-58
2023/05/25 10:46:07;;;;;;;13.07;4.05;;;;;;;20.35;44.41;101762.97;5044022;28;20052;-60
2023/05/25 10:48:36;;;;;;;9.30;4.30;;;;;;;20.18;45.26;101772.38;5043466;28;20461;-59
2023/05/25 10:51:03;;;;;;;13.18;4.50;;;;;;;20.17;45.27;101765.34;5048177;28;20056;-61
2023/05/25 10:53:30;;;;;;;11.95;3.80;;;;;;;20.26;45.02;101757.53;5047176;28;20053;-60
2023/05/25 10:56:02;;;;;;;9.65;3.97;;;;;;;20.57;44.41;101766.56;5048731;28;20057;-58
2023/05/25 10:58:30;;;;;;;9.82;4.03;;;;;;;20.72;43.35;101768.84;5049994;28;20059;-61
2023/05/25 11:01:01;;;;;;;7.22;3.45;;;;;;;20.89;43.57;101766.56;5051055;28;20176;-59
2023/05/25 11:04:08;;;;;;;10.68;4.28;;;;;;;20.84;43.39;101769.63;5045360;28;20155;-60
2023/05/25 11:06:36;;;;;;;11.13;3.97;;;;;;;20.47;43.49;101759.31;5045905;28;20481;-61
2023/05/25 11:09:05;;;;;;;9.50;4.15;;;;;;;20.53;43.53;101757.94;5053255;28;20505;-61
2023/05/25 11:11:57;;;;;;;14.30;4.15;;;;;;;20.93;43.25;101755.44;5042676;28;20136;-60
2023/05/25 11:14:41;;;;;;;18.75;3.55;;;;;;;21.16;42.60;101763.34;5041538;28;20244;-58
2023/05/25 11:17:10;;;;;;;8.25;3.33;;;;;;;21.22;42.22;101760.16;5048118;28;20135;-59
2023/05/25 11:20:01;;;;;;;11.25;3.95;;;;;;;21.20;42.57;101756.75;5047583;28;20053;-59
2023/05/25 11:22:36;;;;;;;9.18;3.97;;;;;;;20.80;42.79;101764.66;5042809;28;20047;-61
2023/05/25 11:25:23;;;;;;;;;;;;;;;20.81;43.47;101761.88;5050946;28;20140;-61